Time;durP1;ratioP1;P1;durP2;ratioP2;P2;SDS_P1;SDS_P2;PMS_P1;PMS_P2;Temp;Humidity;BMP_temperature;BMP_pressure;BME280_temperature;BME280_humidity;BME280_pressure;Samples;Min_cycle;Max_cycle;Signal;HPM_P1;HPM_P2
2022/06/21 00:01:19;;;;;;;1.35;1.25;;;14.00;99.90;;;;;;5115317;28;20260;-53
2022/06/21 00:03:47;;;;;;;1.67;1.50;;;14.00;99.90;;;;;;5114846;28;20527;-54
2022/06/21 00:06:17;;;;;;;1.73;1.50;;;13.90;99.90;;;;;;5113582;28;20169;-53
2022/06/21 00:08:43;;;;;;;1.70;1.35;;;13.80;99.90;;;;;;5114273;28;20212;-54
2022/06/21 00:11:23;;;;;;;1.50;1.40;;;13.80;99.90;;;;;;5114652;28;20204;-54
2022/06/21 00:13:49;;;;;;;1.73;1.25;;;13.80;99.90;;;;;;5114799;28;20619;-54
2022/06/21 00:16:15;;;;;;;1.90;1.63;;;13.90;99.90;;;;;;5113296;28;20247;-54
2022/06/21 00:18:43;;;;;;;1.60;1.50;;;13.90;99.90;;;;;;5096068;28;20173;-54
2022/06/21 00:21:19;;;;;;;2.13;1.70;;;13.90;99.90;;;;;;5114271;28;20169;-54
2022/06/21 00:23:44;;;;;;;1.50;1.40;;;13.90;99.90;;;;;;5114527;28;20168;-52
2022/06/21 00:26:12;;;;;;;3.58;1.90;;;13.90;99.90;;;;;;5114162;28;20279;-53
2022/06/21 00:28:39;;;;;;;2.42;1.75;;;13.80;99.90;;;;;;5114088;28;20585;-54
2022/06/21 00:31:14;;;;;;;1.48;1.35;;;13.80;99.90;;;;;;5112964;28;20642;-54
2022/06/21 00:33:40;;;;;;;3.35;2.40;;;13.60;99.90;;;;;;5114158;28;20206;-54
2022/06/21 00:36:22;;;;;;;2.13;1.67;;;13.70;99.90;;;;;;5112870;28;20169;-52
2022/06/21 00:38:48;;;;;;;1.65;1.40;;;13.60;99.90;;;;;;5113802;28;20181;-53
2022/06/21 00:41:16;;;;;;;1.50;1.40;;;13.50;99.90;;;;;;5114091;28;20545;-53
2022/06/21 00:43:46;;;;;;;1.60;1.50;;;13.60;99.90;;;;;;5112752;28;20210;-53
2022/06/21 00:46:37;;;;;;;1.60;1.48;;;13.60;99.90;;;;;;5113925;28;20176;-54
2022/06/21 00:49:10;;;;;;;1.77;1.45;;;13.50;99.90;;;;;;5113731;28;20215;-53
2022/06/21 00:51:41;;;;;;;1.63;1.45;;;13.40;99.90;;;;;;5113829;28;20527;-53
2022/06/21 00:54:16;;;;;;;1.80;1.30;;;13.50;99.90;;;;;;5113930;28;20193;-55
2022/06/21 00:56:51;;;;;;;2.10;1.90;;;13.50;99.90;;;;;;5114343;28;20169;-54
2022/06/21 00:59:25;;;;;;;1.88;1.48;;;13.40;99.90;;;;;;5113912;28;20191;-54
2022/06/21 01:01:57;;;;;;;2.25;1.80;;;13.40;99.90;;;;;;5113818;28;20179;-54
2022/06/21 01:04:33;;;;;;;3.35;1.75;;;13.20;99.90;;;;;;5113848;28;20630;-54
2022/06/21 01:07:01;;;;;;;2.55;1.63;;;13.00;99.90;;;;;;5113393;28;20169;-50
2022/06/21 01:09:35;;;;;;;1.92;1.35;;;13.10;99.90;;;;;;5113817;28;20215;-53
2022/06/21 01:12:10;;;;;;;2.95;2.03;;;13.20;99.90;;;;;;5112523;28;20639;-53
2022/06/21 01:14:39;;;;;;;1.50;1.40;;;13.20;99.90;;;;;;5113674;28;20637;-53
2022/06/21 01:17:08;;;;;;;1.58;1.48;;;13.20;99.90;;;;;;5113510;28;20162;-50
2022/06/21 01:19:48;;;;;;;3.08;2.13;;;13.20;99.90;;;;;;5113369;28;20658;-54
2022/06/21 01:22:28;;;;;;;3.13;1.83;;;13.30;99.90;;;;;;5113717;28;20165;-52
2022/06/21 01:25:28;;;;;;;2.05;1.88;;;13.10;99.90;;;;;;5113418;28;20562;-52
2022/06/21 01:27:55;;;;;;;2.25;1.80;;;13.00;99.90;;;;;;5113324;28;20605;-53
2022/06/21 01:30:27;;;;;;;3.03;1.70;;;13.00;99.90;;;;;;5113638;28;20207;-53
2022/06/21 01:32:56;;;;;;;2.58;2.13;;;12.90;99.90;;;;;;5113729;28;20174;-52
2022/06/21 01:35:42;;;;;;;3.40;1.58;;;13.00;99.90;;;;;;5113454;28;20214;-54
2022/06/21 01:38:12;;;;;;;2.80;1.90;;;13.00;99.90;;;;;;5113541;28;20272;-52
2022/06/21 01:40:46;;;;;;;2.72;1.90;;;12.90;99.90;;;;;;5113406;28;20252;-53
2022/06/21 01:43:16;;;;;;;2.50;2.00;;;12.90;99.90;;;;;;5113650;28;20522;-50
2022/06/21 01:45:46;;;;;;;2.35;1.95;;;12.90;99.90;;;;;;5112209;28;20165;-53
2022/06/21 01:48:21;;;;;;;2.38;1.95;;;13.00;99.90;;;;;;5113267;28;20208;-53
2022/06/21 01:50:48;;;;;;;1.75;1.65;;;13.00;99.90;;;;;;5115331;28;20181;-53
2022/06/21 01:53:16;;;;;;;1.60;1.50;;;13.00;99.90;;;;;;5117496;28;20172;-54
2022/06/21 01:55:47;;;;;;;2.60;1.90;;;13.10;99.90;;;;;;5116127;28;20634;-54
2022/06/21 01:58:18;;;;;;;3.67;2.00;;;13.10;99.90;;;;;;5117307;28;20254;-54
2022/06/21 02:00:51;;;;;;;1.83;1.67;;;12.90;99.90;;;;;;5117089;28;20173;-54
2022/06/21 02:03:20;;;;;;;1.67;1.50;;;12.90;99.90;;;;;;5117065;28;20168;-54
2022/06/21 02:05:53;;;;;;;1.70;1.60;;;12.90;99.90;;;;;;5117189;28;20172;-53
2022/06/21 02:08:23;;;;;;;2.80;1.67;;;12.90;99.90;;;;;;5116992;28;20212;-54
2022/06/21 02:11:01;;;;;;;2.65;1.92;;;12.90;99.90;;;;;;5117054;28;20534;-53
2022/06/21 02:13:36;;;;;;;1.98;1.58;;;12.90;99.90;;;;;;5116974;28;20234;-54
2022/06/21 02:16:17;;;;;;;3.90;1.88;;;12.90;99.90;;;;;;5116885;28;20495;-53
2022/06/21 02:18:50;;;;;;;1.70;1.60;;;13.00;99.90;;;;;;5116987;28;20173;-54
2022/06/21 02:21:29;;;;;;;3.15;1.70;;;13.00;99.90;;;;;;5098696;28;20171;-54
2022/06/21 02:23:57;;;;;;;2.90;1.77;;;12.90;99.90;;;;;;5115366;28;20223;-54
2022/06/21 02:26:25;;;;;;;3.00;1.90;;;12.90;99.90;;;;;;5116804;28;20265;-54
2022/06/21 02:28:51;;;;;;;3.85;2.00;;;12.70;99.90;;;;;;5116532;28;20232;-53
2022/06/21 02:31:18;;;;;;;1.65;1.55;;;12.80;99.90;;;;;;5115499;28;20173;-54
2022/06/21 02:33:47;;;;;;;2.67;2.00;;;12.80;99.90;;;;;;5115472;28;20174;-53
2022/06/21 02:36:15;;;;;;;2.17;1.90;;;12.80;99.90;;;;;;5115185;28;20538;-53
2022/06/21 02:38:50;;;;;;;3.40;1.95;;;12.80;99.90;;;;;;5116253;28;20700;-54
2022/06/21 02:41:19;;;;;;;3.78;1.80;;;12.80;99.90;;;;;;5116553;28;20247;-53
2022/06/21 02:44:00;;;;;;;2.22;1.85;;;12.80;99.90;;;;;;5115082;28;20702;-52
2022/06/21 02:46:30;;;;;;;2.03;1.73;;;12.90;99.90;;;;;;5116309;28;20165;-53
2022/06/21 02:49:01;;;;;;;2.50;1.83;;;12.80;99.90;;;;;;5116231;28;20260;-53
2022/06/21 02:51:34;;;;;;;2.13;1.70;;;12.70;99.90;;;;;;5116105;28;20180;-54
2022/06/21 02:54:22;;;;;;;2.08;1.70;;;12.80;99.90;;;;;;5116487;28;20248;-53
2022/06/21 02:56:51;;;;;;;2.75;1.92;;;13.10;99.90;;;;;;5116604;28;20181;-53
2022/06/21 02:59:18;;;;;;;2.03;1.85;;;13.00;99.90;;;;;;5116119;28;20534;-53
2022/06/21 03:02:07;;;;;;;1.92;1.80;;;12.90;99.90;;;;;;5114475;28;20178;-54
2022/06/21 03:04:39;;;;;;;2.22;2.00;;;12.90;99.90;;;;;;5116013;28;20205;-53
2022/06/21 03:07:07;;;;;;;2.20;1.70;;;12.90;99.90;;;;;;5114738;28;20271;-54
2022/06/21 03:09:34;;;;;;;2.10;1.70;;;12.80;99.90;;;;;;5115709;28;20300;-52
2022/06/21 03:12:04;;;;;;;2.97;2.13;;;12.80;99.90;;;;;;5114320;28;20174;-54
2022/06/21 03:14:33;;;;;;;1.85;1.67;;;12.80;99.90;;;;;;5116084;28;20165;-54
2022/06/21 03:17:01;;;;;;;2.47;1.75;;;12.70;99.90;;;;;;5114592;28;20196;-51
2022/06/21 03:19:38;;;;;;;3.05;1.83;;;12.80;99.90;;;;;;5114724;28;20212;-53
2022/06/21 03:22:16;;;;;;;2.75;1.77;;;12.90;99.90;;;;;;5114300;28;20176;-53
2022/06/21 03:24:42;;;;;;;2.33;1.63;;;13.00;99.90;;;;;;5115806;28;20630;-54
2022/06/21 03:27:37;;;;;;;2.75;1.85;;;13.00;99.90;;;;;;5115569;28;20183;-54
2022/06/21 03:30:05;;;;;;;2.00;1.70;;;13.00;99.90;;;;;;5115626;28;20214;-53
2022/06/21 03:32:35;;;;;;;2.30;2.05;;;13.00;99.90;;;;;;5115364;28;20165;-53
2022/06/21 03:35:03;;;;;;;1.45;1.20;;;13.10;99.90;;;;;;5115180;28;20634;-53
2022/06/21 03:37:29;;;;;;;1.80;1.30;;;13.00;99.90;;;;;;5114044;28;20182;-53
2022/06/21 03:42:44;;;;;;;2.38;1.70;;;13.20;99.90;;;;;;5114535;28;20243;-53
2022/06/21 03:45:26;;;;;;;1.92;1.65;;;13.20;99.90;;;;;;5115040;28;20169;-52
2022/06/21 03:48:06;;;;;;;2.38;1.85;;;13.10;99.90;;;;;;5115284;28;20193;-52
2022/06/21 03:50:39;;;;;;;2.75;1.73;;;13.10;99.90;;;;;;5114941;28;20655;-53
2022/06/21 03:53:31;;;;;;;2.75;1.65;;;13.10;99.90;;;;;;5115158;28;20177;-50
2022/06/21 03:56:02;;;;;;;2.00;1.58;;;13.10;99.90;;;;;;5115151;27;20222;-54
2022/06/21 03:58:50;;;;;;;1.45;1.17;;;13.20;99.90;;;;;;5113481;28;20177;-54
2022/06/21 04:01:41;;;;;;;1.90;1.45;;;13.20;99.90;;;;;;5114995;28;20205;-53
2022/06/21 04:04:30;;;;;;;1.25;1.15;;;13.10;99.90;;;;;;5114781;28;20177;-53
2022/06/21 04:07:26;;;;;;;1.58;1.48;;;13.20;99.90;;;;;;5114624;28;20166;-54
2022/06/21 04:09:55;;;;;;;1.58;1.25;;;13.20;99.90;;;;;;5090536;28;20753;-53
2022/06/21 04:12:33;;;;;;;1.60;1.42;;;13.20;99.90;;;;;;5114023;28;20170;-54
2022/06/21 04:15:04;;;;;;;1.95;1.65;;;13.20;99.90;;;;;;5114709;28;20166;-54
2022/06/21 04:17:41;;;;;;;1.75;1.35;;;13.30;99.90;;;;;;5114445;28;20165;-52
2022/06/21 04:20:31;;;;;;;1.77;1.60;;;13.30;99.90;;;;;;5114734;28;20197;-56
2022/06/21 04:23:01;;;;;;;1.90;1.70;;;13.30;99.90;;;;;;5114308;28;20169;-54
2022/06/21 04:25:35;;;;;;;2.60;1.70;;;13.30;99.90;;;;;;5114225;28;20710;-53
2022/06/21 04:28:14;;;;;;;1.90;1.40;;;13.30;99.90;;;;;;5112962;28;20665;-53
2022/06/21 04:31:01;;;;;;;2.00;1.65;;;13.40;99.90;;;;;;5114280;28;20173;-53
2022/06/21 04:33:36;;;;;;;1.90;1.75;;;13.40;99.90;;;;;;5114153;28;20584;-53
2022/06/21 04:36:22;;;;;;;1.77;1.65;;;13.50;99.90;;;;;;5113752;28;20204;-52
2022/06/21 04:39:11;;;;;;;1.65;1.55;;;13.40;99.90;;;;;;5113260;28;20208;-53
2022/06/21 04:41:40;;;;;;;1.48;1.33;;;13.50;99.90;;;;;;5114559;28;20157;-53
2022/06/21 04:44:16;;;;;;;1.95;1.83;;;13.50;99.90;;;;;;5114117;28;20179;-53
2022/06/21 04:46:56;;;;;;;2.42;1.80;;;13.50;99.90;;;;;;5114140;28;20213;-53
2022/06/21 04:49:41;;;;;;;2.38;1.70;;;13.60;99.90;;;;;;5113826;28;20197;-53
2022/06/21 04:52:49;;;;;;;2.25;1.80;;;13.60;99.90;;;;;;5114081;28;20586;-53
2022/06/21 04:55:16;;;;;;;1.92;1.60;;;13.70;99.90;;;;;;5083584;28;20268;-54
2022/06/21 04:57:43;;;;;;;2.65;1.75;;;13.70;99.90;;;;;;5113925;28;20169;-54
2022/06/21 05:00:18;;;;;;;2.10;1.83;;;13.70;99.90;;;;;;5113671;28;20181;-52
2022/06/21 05:02:48;;;;;;;1.95;1.70;;;13.70;99.90;;;;;;5113862;28;20244;-54
2022/06/21 05:05:17;;;;;;;1.80;1.70;;;13.70;99.90;;;;;;5113359;28;20527;-54
2022/06/21 05:07:47;;;;;;;2.33;1.90;;;13.80;99.90;;;;;;5113225;28;20217;-53
2022/06/21 05:10:21;;;;;;;2.22;2.03;;;13.80;99.90;;;;;;5112543;28;20173;-54
2022/06/21 05:12:50;;;;;;;2.40;2.10;;;13.90;99.90;;;;;;5112468;28;20176;-53
2022/06/21 05:15:24;;;;;;;2.05;1.75;;;13.90;99.90;;;;;;5112408;28;20205;-53
2022/06/21 05:17:54;;;;;;;4.05;2.25;;;14.00;99.90;;;;;;5113716;28;20226;-54
2022/06/21 05:20:25;;;;;;;3.38;2.20;;;14.10;99.90;;;;;;5112382;28;20527;-53
2022/06/21 05:22:54;;;;;;;2.97;2.13;;;14.10;99.90;;;;;;5113524;28;20197;-54
2022/06/21 05:25:33;;;;;;;1.67;1.50;;;14.00;99.90;;;;;;5116491;28;20166;-54
2022/06/21 05:28:02;;;;;;;3.05;2.50;;;14.10;99.90;;;;;;5116680;28;20629;-54
2022/06/21 05:30:51;;;;;;;2.67;1.90;;;14.30;99.90;;;;;;5117506;28;20184;-54
2022/06/21 05:33:23;;;;;;;2.63;2.15;;;14.40;99.90;;;;;;5116362;28;20507;-54
2022/06/21 05:35:49;;;;;;;2.75;2.13;;;14.60;99.90;;;;;;5117056;28;20642;-56
2022/06/21 05:38:22;;;;;;;3.03;2.53;;;14.60;99.90;;;;;;5117603;28;20254;-55
2022/06/21 05:41:04;;;;;;;3.13;2.03;;;14.70;99.90;;;;;;5117607;28;20162;-54
2022/06/21 05:43:48;;;;;;;2.75;2.35;;;14.70;99.90;;;;;;5116088;28;20183;-55
2022/06/21 05:46:21;;;;;;;3.72;2.08;;;14.90;99.90;;;;;;5114922;28;20234;-54
2022/06/21 05:48:54;;;;;;;2.30;1.83;;;15.00;99.90;;;;;;5115086;27;20669;-56
2022/06/21 05:51:25;;;;;;;2.10;1.90;;;15.10;99.90;;;;;;5115235;28;20523;-53
2022/06/21 05:53:55;;;;;;;1.95;1.60;;;15.20;99.90;;;;;;5116280;28;20274;-53
2022/06/21 05:56:24;;;;;;;1.50;1.40;;;15.10;99.90;;;;;;5117123;27;20166;-55
2022/06/21 05:59:05;;;;;;;1.60;1.40;;;15.20;99.90;;;;;;5117163;28;20180;-55
2022/06/21 06:01:37;;;;;;;2.08;1.70;;;15.30;99.90;;;;;;5117361;28;20174;-55
2022/06/21 06:04:13;;;;;;;2.60;1.50;;;15.60;99.90;;;;;;5117055;28;20165;-54
2022/06/21 06:06:42;;;;;;;1.73;1.27;;;15.70;99.90;;;;;;5117201;28;20173;-55
2022/06/21 06:09:25;;;;;;;1.20;1.10;;;15.80;99.90;;;;;;5117126;28;20201;-55
2022/06/21 06:12:22;;;;;;;1.70;1.33;;;15.80;99.90;;;;;;5116722;28;20715;-54
2022/06/21 06:15:05;;;;;;;1.42;1.25;;;16.00;99.90;;;;;;5116327;28;20213;-54
2022/06/21 06:31:08;;;;;;;2.28;1.52;;;16.50;99.90;;;;;;5406575;22;20272;-58
2022/06/21 06:33:49;;;;;;;1.27;1.10;;;16.30;99.90;;;;;;5076103;28;20169;-59
2022/06/21 06:36:17;;;;;;;1.10;1.00;;;16.30;99.90;;;;;;5074791;28;20175;-58
2022/06/21 06:38:44;;;;;;;1.10;0.98;;;16.50;99.90;;;;;;5075721;28;20504;-61
2022/06/21 06:41:13;;;;;;;1.20;1.02;;;16.50;99.90;;;;;;5075652;28;20704;-59
2022/06/21 06:43:53;;;;;;;1.38;1.20;;;16.70;99.90;;;;;;5075669;28;20182;-59
2022/06/21 06:46:48;;;;;;;2.40;1.48;;;16.90;99.90;;;;;;5075645;28;20507;-59
2022/06/21 06:49:25;;;;;;;1.33;1.15;;;16.90;99.90;;;;;;5066665;28;20211;-59
2022/06/21 06:52:09;;;;;;;1.17;1.08;;;17.00;99.90;;;;;;5075801;28;20181;-58
2022/06/21 06:54:37;;;;;;;2.00;1.35;;;16.90;99.90;;;;;;5075714;28;20171;-59
2022/06/21 06:57:21;;;;;;;1.13;0.98;;;16.90;99.90;;;;;;5075546;28;20178;-58
2022/06/21 06:59:47;;;;;;;1.60;1.17;;;17.20;99.90;;;;;;5075229;28;20240;-59
2022/06/21 07:02:20;;;;;;;1.60;1.08;;;17.40;99.90;;;;;;5075262;28;20527;-59
2022/06/21 07:04:51;;;;;;;1.85;1.27;;;17.80;99.90;;;;;;5075257;28;20198;-59
2022/06/21 07:07:26;;;;;;;1.15;1.05;;;18.00;99.90;;;;;;5075453;28;20171;-59
2022/06/21 07:09:56;;;;;;;3.13;1.30;;;18.00;99.90;;;;;;5075217;28;20268;-59
2022/06/21 07:12:28;;;;;;;1.40;1.00;;;17.90;99.90;;;;;;5075317;28;20253;-58
2022/06/21 07:14:55;;;;;;;1.63;1.30;;;18.00;99.90;;;;;;5074955;28;20527;-59
2022/06/21 07:17:32;;;;;;;2.83;1.30;;;18.00;99.90;;;;;;5075151;28;20170;-56
2022/06/21 07:19:58;;;;;;;1.10;1.00;;;18.00;99.90;;;;;;5073814;28;20192;-56
2022/06/21 07:22:28;;;;;;;1.23;1.10;;;18.20;99.90;;;;;;5074874;28;20171;-59
2022/06/21 07:25:04;;;;;;;1.70;1.25;;;18.30;99.90;;;;;;5074929;28;20171;-59
2022/06/21 07:27:34;;;;;;;1.58;1.40;;;18.30;99.90;;;;;;5074706;28;20163;-59
2022/06/21 07:30:05;;;;;;;1.40;1.10;;;18.40;99.90;;;;;;5074776;28;20190;-59
2022/06/21 07:32:40;;;;;;;1.58;1.33;;;18.80;99.90;;;;;;5074791;28;20178;-58
2022/06/21 07:35:24;;;;;;;1.65;1.50;;;19.10;99.90;;;;;;5074664;28;20174;-58
2022/06/21 07:38:00;;;;;;;2.10;1.17;;;19.10;99.90;;;;;;5074586;28;20176;-59
2022/06/21 07:40:32;;;;;;;1.35;1.20;;;18.80;99.90;;;;;;5074544;28;20637;-59
2022/06/21 07:43:05;;;;;;;1.60;1.30;;;18.40;99.90;;;;;;5074699;28;20209;-59
2022/06/21 07:46:05;;;;;;;2.63;1.67;;;18.00;99.90;;;;;;5074491;28;20259;-62
2022/06/21 07:48:45;;;;;;;2.53;1.40;;;17.90;99.90;;;;;;5056197;28;20225;-59
2022/06/21 07:51:18;;;;;;;1.50;1.23;;;17.90;99.90;;;;;;5074357;28;20701;-59
2022/06/21 07:53:52;;;;;;;2.63;1.60;;;17.90;99.90;;;;;;5074266;28;20254;-59
2022/06/21 07:56:22;;;;;;;1.25;1.10;;;18.10;99.90;;;;;;5074183;28;20253;-59
2022/06/21 07:58:58;;;;;;;1.90;1.67;;;18.60;99.90;;;;;;5073865;28;20297;-59
2022/06/21 08:07:31;;;;;;;1.15;1.02;;;18.30;99.90;;;;;;5074209;28;20180;-60
2022/06/21 08:10:02;;;;;;;1.63;1.23;;;18.30;99.90;;;;;;5056484;28;20185;-59
2022/06/21 08:12:27;;;;;;;1.52;1.23;;;18.30;99.90;;;;;;5072714;28;20192;-59
2022/06/21 08:14:54;;;;;;;1.40;1.30;;;18.40;99.90;;;;;;5056145;28;20259;-59
2022/06/21 08:17:36;;;;;;;1.10;1.00;;;18.40;99.90;;;;;;5073782;28;20175;-59
2022/06/21 08:20:05;;;;;;;1.20;0.90;;;18.30;99.90;;;;;;5073912;28;20170;-59
2022/06/21 08:22:43;;;;;;;1.42;1.10;;;18.30;99.90;;;;;;5073808;28;20179;-59
2022/06/21 08:25:51;;;;;;;1.60;1.33;;;18.40;99.90;;;;;;5072419;28;20174;-59
2022/06/21 08:28:21;;;;;;;1.10;0.95;;;18.60;99.90;;;;;;5034624;28;20305;-59
2022/06/21 08:31:02;;;;;;;1.77;1.13;;;18.80;99.90;;;;;;5073634;28;20224;-60
2022/06/21 08:33:43;;;;;;;1.50;1.30;;;19.00;99.90;;;;;;5073638;28;20173;-59
2022/06/21 08:36:17;;;;;;;2.83;1.45;;;18.90;99.90;;;;;;5073642;28;20171;-59
2022/06/21 08:38:58;;;;;;;1.40;1.30;;;19.00;99.90;;;;;;5073577;28;20485;-59
2022/06/21 08:42:06;;;;;;;2.67;1.38;;;18.80;99.90;;;;;;5073592;28;20231;-59
2022/06/21 08:44:37;;;;;;;1.83;1.27;;;18.80;99.90;;;;;;5073286;28;20185;-59
2022/06/21 08:47:12;;;;;;;1.92;1.30;;;18.90;99.90;;;;;;5073571;28;20171;-59
2022/06/21 08:49:51;;;;;;;2.17;1.50;;;18.80;99.90;;;;;;5073231;28;20633;-59
2022/06/21 08:52:51;;;;;;;1.80;1.17;;;18.90;99.90;;;;;;5073653;28;20576;-59
2022/06/21 08:55:31;;;;;;;1.60;1.02;;;19.00;99.90;;;;;;5072556;28;20207;-59
2022/06/21 08:58:17;;;;;;;1.40;1.17;;;19.10;99.90;;;;;;5073446;28;20273;-59
2022/06/21 09:01:03;;;;;;;1.63;1.13;;;19.00;99.90;;;;;;5073029;28;20175;-55
2022/06/21 09:03:49;;;;;;;1.30;1.20;;;18.90;99.80;;;;;;5071669;28;20212;-57
2022/06/21 09:06:36;;;;;;;1.02;0.88;;;18.80;99.90;;;;;;5073333;28;20186;-59
2022/06/21 09:09:47;;;;;;;1.58;1.17;;;18.90;99.90;;;;;;5073033;28;20202;-59
2022/06/21 09:12:26;;;;;;;1.10;1.00;;;18.90;99.90;;;;;;5000968;28;20197;-59
2022/06/21 09:15:11;;;;;;;1.45;1.10;;;18.60;99.90;;;;;;5073845;28;20170;-59
2022/06/21 09:17:57;;;;;;;1.50;1.10;;;18.70;99.90;;;;;;5072679;28;20180;-59
2022/06/21 09:20:32;;;;;;;1.45;1.30;;;18.70;99.90;;;;;;5073171;28;20581;-61
2022/06/21 09:23:42;;;;;;;1.42;1.10;;;18.60;99.90;;;;;;5072995;28;20244;-59
2022/06/21 09:26:15;;;;;;;1.17;1.02;;;18.70;99.50;;;;;;5072871;28;20185;-60
2022/06/21 09:28:52;;;;;;;1.42;0.80;;;18.60;99.60;;;;;;5071774;28;20710;-60
2022/06/21 09:31:41;;;;;;;1.90;1.27;;;18.50;99.80;;;;;;5073190;28;20265;-60
2022/06/21 09:34:16;;;;;;;1.98;1.02;;;18.60;99.60;;;;;;5071664;28;20174;-59
2022/06/21 09:36:50;;;;;;;1.63;0.98;;;18.50;99.90;;;;;;5072821;28;20685;-60
2022/06/21 09:39:34;;;;;;;1.10;0.80;;;18.60;98.30;;;;;;5073068;28;20258;-60
2022/06/21 09:42:31;;;;;;;1.35;1.15;;;18.40;98.20;;;;;;5072909;28;20536;-60
2022/06/21 09:45:09;;;;;;;0.70;0.70;;;18.50;98.70;;;;;;5072833;28;20170;-60
2022/06/21 09:47:49;;;;;;;2.08;1.05;;;18.60;99.30;;;;;;5072916;28;20182;-60
2022/06/21 09:50:27;;;;;;;1.02;0.90;;;18.60;99.20;;;;;;5072920;28;20198;-60
2022/06/21 09:53:21;;;;;;;0.80;0.80;;;18.50;98.60;;;;;;5072822;28;20201;-60
2022/06/21 09:56:05;;;;;;;0.75;0.75;;;18.40;99.60;;;;;;5073003;28;20167;-60
2022/06/21 09:58:56;;;;;;;1.02;0.70;;;18.60;99.90;;;;;;5054880;28;20534;-59
2022/06/21 10:01:40;;;;;;;1.13;0.90;;;18.40;99.30;;;;;;5072656;28;20186;-60
2022/06/21 10:04:24;;;;;;;1.23;0.88;;;18.40;98.90;;;;;;5072910;28;20571;-59
2022/06/21 10:06:58;;;;;;;0.88;0.80;;;18.50;99.70;;;;;;5072668;28;20242;-59
2022/06/21 10:09:24;;;;;;;1.73;0.80;;;18.60;99.70;;;;;;5072670;28;20552;-59
2022/06/21 10:12:08;;;;;;;0.60;0.60;;;18.70;99.40;;;;;;5074541;28;20170;-59
2022/06/21 10:14:48;;;;;;;0.85;0.77;;;18.80;99.40;;;;;;5076290;28;20162;-59
2022/06/21 10:17:44;;;;;;;1.10;0.90;;;19.00;99.30;;;;;;5076541;28;20174;-60
2022/06/21 10:20:32;;;;;;;1.42;0.93;;;19.20;98.40;;;;;;5076142;28;20175;-59
2022/06/21 10:23:28;;;;;;;1.48;0.80;;;19.20;97.90;;;;;;5076390;28;20650;-60
2022/06/21 10:25:59;;;;;;;1.63;0.90;;;19.40;98.30;;;;;;5076076;28;20171;-60
2022/06/21 10:28:38;;;;;;;1.70;0.95;;;19.30;98.10;;;;;;5075994;28;20200;-60
2022/06/21 10:31:35;;;;;;;1.70;1.08;;;19.40;98.60;;;;;;5076206;28;20190;-59
2022/06/21 10:34:35;;;;;;;0.82;0.80;;;19.50;98.30;;;;;;5076068;28;20198;-60
2022/06/21 10:37:32;;;;;;;0.90;0.80;;;19.70;98.10;;;;;;5075631;28;20170;-60
2022/06/21 10:40:28;;;;;;;1.17;1.00;;;19.90;98.00;;;;;;5075968;28;20175;-59
2022/06/21 10:43:16;;;;;;;1.25;1.10;;;20.30;98.20;;;;;;5075815;28;20257;-59
2022/06/21 10:45:50;;;;;;;1.15;1.00;;;20.50;96.90;;;;;;5075894;28;20167;-59
2022/06/21 10:48:37;;;;;;;1.38;1.05;;;20.70;96.80;;;;;;5075771;28;20197;-59
2022/06/21 10:51:03;;;;;;;2.55;1.27;;;20.80;96.90;;;;;;5075782;28;20170;-59
2022/06/21 10:53:47;;;;;;;2.25;1.10;;;20.30;96.10;;;;;;5074310;28;20600;-59
2022/06/21 10:59:28;;;;;;;2.78;1.20;;;20.10;97.10;;;;;;5075618;28;20178;-59
2022/06/21 11:02:02;;;;;;;1.88;1.50;;;19.90;96.90;;;;;;5075472;28;20705;-59
2022/06/21 11:04:30;;;;;;;1.42;1.08;;;19.70;96.50;;;;;;5075609;28;20167;-60
2022/06/21 11:07:06;;;;;;;1.17;1.00;;;19.50;97.70;;;;;;5075330;28;20162;-60
2022/06/21 11:09:50;;;;;;;1.45;1.25;;;19.60;97.40;;;;;;5075232;28;20202;-59
2022/06/21 11:12:53;;;;;;;2.13;1.20;;;19.50;97.40;;;;;;5075394;28;20181;-60
2022/06/21 11:15:37;;;;;;;1.63;0.90;;;19.50;97.30;;;;;;5075326;28;20253;-59
2022/06/21 11:18:26;;;;;;;1.70;1.00;;;19.60;97.10;;;;;;5075111;28;20171;-59
2022/06/21 11:21:14;;;;;;;1.42;1.08;;;19.60;97.20;;;;;;5074969;28;20167;-60
2022/06/21 11:24:17;;;;;;;1.10;1.02;;;19.40;97.60;;;;;;5074903;28;20200;-60
2022/06/21 11:27:09;;;;;;;1.00;0.88;;;19.40;97.90;;;;;;5075088;28;20654;-60
2022/06/21 11:29:50;;;;;;;1.08;0.88;;;19.40;98.30;;;;;;5074982;28;20309;-60
2022/06/21 11:32:18;;;;;;;1.40;1.10;;;19.30;97.50;;;;;;5075010;28;20236;-60
2022/06/21 11:35:11;;;;;;;1.40;1.10;;;19.20;97.60;;;;;;5074717;28;20178;-60
2022/06/21 11:38:00;;;;;;;1.80;1.25;;;19.10;98.50;;;;;;5074667;28;20170;-60
2022/06/21 11:40:48;;;;;;;1.98;1.25;;;19.10;98.10;;;;;;5074910;28;20246;-60
2022/06/21 11:43:34;;;;;;;2.45;1.30;;;19.10;98.00;;;;;;5074768;28;20202;-60
2022/06/21 11:46:25;;;;;;;1.33;1.10;;;19.10;97.70;;;;;;5074554;28;20170;-60
2022/06/21 11:49:24;;;;;;;1.42;1.33;;;19.20;97.80;;;;;;5074601;28;20198;-60
2022/06/21 11:52:14;;;;;;;1.33;1.23;;;19.10;97.90;;;;;;5074362;28;20237;-60
2022/06/21 11:54:49;;;;;;;1.85;1.30;;;19.20;97.90;;;;;;5074477;28;20179;-60
2022/06/21 11:57:42;;;;;;;1.30;1.17;;;19.30;98.30;;;;;;5074798;28;20171;-60
2022/06/21 12:00:30;;;;;;;1.83;1.30;;;19.40;97.40;;;;;;5074112;28;20174;-59
2022/06/21 12:02:58;;;;;;;3.25;1.20;;;19.50;98.10;;;;;;5074346;28;20252;-60
2022/06/21 12:05:42;;;;;;;1.30;1.20;;;19.30;97.90;;;;;;5056372;28;20261;-60
2022/06/21 12:08:50;;;;;;;1.88;1.33;;;19.40;98.00;;;;;;5073978;28;20206;-60
2022/06/21 12:11:24;;;;;;;1.20;1.10;;;19.40;98.30;;;;;;5036251;28;20186;-60
2022/06/21 12:14:15;;;;;;;1.45;1.27;;;19.60;97.80;;;;;;5073894;28;20171;-60
2022/06/21 12:16:43;;;;;;;1.48;1.38;;;19.70;97.70;;;;;;5073957;28;20171;-60
2022/06/21 12:19:17;;;;;;;1.73;1.10;;;19.80;98.00;;;;;;5073773;28;20175;-60
2022/06/21 12:22:11;;;;;;;1.80;1.10;;;19.80;97.20;;;;;;5073903;28;20177;-59
2022/06/21 12:24:38;;;;;;;1.33;1.20;;;19.90;97.80;;;;;;5037323;28;20183;-60
2022/06/21 12:27:10;;;;;;;1.33;1.00;;;19.90;97.60;;;;;;5055885;28;20210;-60
2022/06/21 12:29:36;;;;;;;2.03;1.25;;;19.80;97.70;;;;;;5055425;28;20283;-60
2022/06/21 12:32:05;;;;;;;2.33;1.20;;;19.90;98.10;;;;;;5073669;28;20578;-60
2022/06/21 12:34:42;;;;;;;1.60;1.00;;;19.80;97.70;;;;;;5073137;28;20174;-56
2022/06/21 12:37:17;;;;;;;1.30;1.10;;;20.00;97.50;;;;;;5073689;28;20547;-60
2022/06/21 12:39:48;;;;;;;1.38;1.10;;;20.10;97.80;;;;;;5073520;28;20185;-58
2022/06/21 12:42:26;;;;;;;1.52;0.90;;;20.00;97.20;;;;;;5073528;28;20196;-60
2022/06/21 12:45:12;;;;;;;1.52;1.40;;;20.10;97.30;;;;;;5073668;28;20228;-60
2022/06/21 12:47:38;;;;;;;1.52;1.30;;;20.00;97.80;;;;;;5073523;28;20249;-60
2022/06/21 12:50:41;;;;;;;1.30;1.20;;;20.00;97.80;;;;;;5073379;28;20762;-60
2022/06/21 12:53:26;;;;;;;1.38;1.20;;;20.00;97.60;;;;;;5073351;28;20221;-59
2022/06/21 12:56:27;;;;;;;1.42;1.20;;;20.00;97.20;;;;;;5073394;28;20167;-60
2022/06/21 12:59:23;;;;;;;1.67;1.20;;;20.20;98.30;;;;;;5073164;28;20175;-60
2022/06/21 13:02:17;;;;;;;1.20;0.90;;;20.00;97.50;;;;;;5073317;28;20178;-60
2022/06/21 13:05:10;;;;;;;1.02;0.93;;;20.10;96.70;;;;;;5073212;28;20173;-59
2022/06/21 13:08:09;;;;;;;2.53;1.10;;;19.90;96.80;;;;;;5073175;28;20245;-60
2022/06/21 13:11:14;;;;;;;1.08;0.98;;;19.90;96.80;;;;;;5073255;28;20183;-60
2022/06/21 13:14:12;;;;;;;1.05;0.90;;;19.90;97.20;;;;;;5073123;28;20615;-60
2022/06/21 13:17:03;;;;;;;1.35;0.82;;;20.10;97.80;;;;;;5073295;28;20212;-60
2022/06/21 13:19:47;;;;;;;2.03;1.00;;;20.00;97.00;;;;;;5073047;28;20178;-60
2022/06/21 13:22:43;;;;;;;1.30;1.20;;;20.10;97.80;;;;;;5073196;28;20171;-60
2022/06/21 13:25:09;;;;;;;1.40;1.23;;;19.90;96.70;;;;;;5073315;28;20167;-60
2022/06/21 13:27:43;;;;;;;1.52;1.27;;;20.00;97.40;;;;;;5071762;28;20231;-60
2022/06/21 13:30:22;;;;;;;1.40;1.00;;;20.00;96.80;;;;;;5073054;28;20198;-60
2022/06/21 13:33:08;;;;;;;1.17;1.08;;;20.10;97.10;;;;;;5073110;28;20163;-60
2022/06/21 13:35:49;;;;;;;0.85;0.85;;;20.00;97.20;;;;;;5072904;28;20171;-60
2022/06/21 13:38:22;;;;;;;1.83;1.10;;;20.10;97.60;;;;;;5072762;28;20179;-60
2022/06/21 13:44:18;;;;;;;2.55;1.00;;;20.40;97.40;;;;;;5073146;28;20232;-60
2022/06/21 13:46:54;;;;;;;0.88;0.85;;;20.30;96.30;;;;;;5076378;28;20173;-60
2022/06/21 13:49:32;;;;;;;1.75;1.65;;;20.30;97.20;;;;;;5076931;28;20208;-60
2022/06/21 13:52:14;;;;;;;1.08;0.95;;;20.40;97.50;;;;;;5076835;28;20224;-60
2022/06/21 13:54:58;;;;;;;1.25;1.13;;;20.40;96.00;;;;;;5058788;28;20174;-60
2022/06/21 13:57:52;;;;;;;1.02;0.80;;;20.40;96.20;;;;;;5076816;28;20167;-60
2022/06/21 14:00:30;;;;;;;2.08;1.17;;;20.30;96.70;;;;;;5076586;28;20262;-60
2022/06/21 14:03:29;;;;;;;1.23;1.08;;;20.30;97.30;;;;;;5076529;28;20169;-60
2022/06/21 14:05:59;;;;;;;3.08;1.38;;;20.50;97.40;;;;;;5076448;28;20595;-58
2022/06/21 14:08:35;;;;;;;1.90;1.15;;;20.50;97.20;;;;;;5076318;28;20200;-61
2022/06/21 14:11:21;;;;;;;1.23;1.10;;;20.80;97.30;;;;;;5076377;28;20174;-61
2022/06/21 14:13:54;;;;;;;1.70;1.10;;;20.80;96.60;;;;;;5076216;28;20170;-60